createdAt,value
2022-09-15T00:02:03.371Z,100.00
2022-09-15T00:04:30.128Z,100.00
2022-09-15T00:06:56.794Z,100.00
2022-09-15T00:09:23.401Z,100.00
2022-09-15T00:11:50.159Z,100.00
2022-09-15T00:14:16.786Z,100.00
2022-09-15T00:16:43.556Z,100.00
2022-09-15T00:19:10.359Z,100.00
2022-09-15T00:21:40.958Z,100.00
2022-09-15T00:24:09.394Z,100.00
2022-09-15T00:26:36.956Z,100.00
2022-09-15T00:29:04.995Z,100.00
2022-09-15T00:31:32.569Z,100.00
2022-09-15T00:34:02.679Z,100.00
2022-09-15T00:36:29.989Z,100.00
2022-09-15T00:38:57.842Z,100.00
2022-09-15T00:41:25.023Z,100.00
2022-09-15T00:43:58.628Z,100.00
2022-09-15T00:46:40.094Z,100.00
2022-09-15T00:49:18.262Z,100.00
2022-09-15T00:51:54.729Z,100.00
2022-09-15T00:54:29.399Z,100.00
2022-09-15T00:57:00.305Z,100.00
2022-09-15T00:59:30.233Z,100.00
2022-09-15T01:02:08.783Z,100.00
2022-09-15T01:04:35.720Z,100.00
2022-09-15T01:07:05.656Z,100.00
2022-09-15T01:09:45.122Z,100.00
2022-09-15T01:12:11.988Z,100.00
2022-09-15T01:14:38.889Z,100.00
2022-09-15T01:17:20.521Z,100.00
2022-09-15T01:20:06.224Z,100.00
2022-09-15T01:22:42.133Z,100.00
2022-09-15T01:25:27.278Z,100.00
2022-09-15T01:28:06.534Z,100.00
2022-09-15T01:30:37.715Z,100.00
2022-09-15T01:33:30.740Z,100.00
2022-09-15T01:36:04.732Z,100.00
2022-09-15T01:38:56.819Z,100.00
2022-09-15T01:41:40.414Z,100.00
2022-09-15T01:44:10.766Z,100.00
2022-09-15T01:46:41.328Z,100.00
2022-09-15T01:49:12.214Z,100.00
2022-09-15T01:51:40.864Z,100.00
2022-09-15T01:54:08.640Z,100.00
2022-09-15T01:56:37.766Z,100.00
2022-09-15T01:59:05.271Z,100.00
2022-09-15T02:01:40.695Z,100.00
2022-09-15T02:04:38.243Z,100.00
2022-09-15T02:07:32.118Z,100.00
2022-09-15T02:10:13.560Z,100.00
2022-09-15T02:13:06.286Z,100.00
2022-09-15T02:15:48.456Z,100.00
2022-09-15T02:18:34.860Z,100.00
2022-09-15T02:21:11.058Z,100.00
2022-09-15T02:23:43.779Z,100.00
2022-09-15T02:26:17.575Z,100.00
2022-09-15T02:28:46.982Z,100.00
2022-09-15T02:31:17.952Z,100.00
2022-09-15T02:34:17.504Z,100.00
2022-09-15T02:36:45.359Z,100.00
2022-09-15T02:39:17.537Z,100.00
2022-09-15T02:41:44.169Z,100.00
2022-09-15T02:44:10.890Z,100.00
2022-09-15T02:46:39.214Z,100.00
2022-09-15T02:49:06.044Z,100.00
2022-09-15T02:51:32.718Z,100.00
2022-09-15T02:53:59.991Z,100.00
2022-09-15T02:56:26.734Z,100.00
2022-09-15T02:58:53.355Z,100.00
2022-09-15T03:01:20.127Z,100.00
2022-09-15T03:03:47.632Z,100.00
2022-09-15T03:06:17.063Z,100.00
2022-09-15T03:08:58.767Z,100.00
2022-09-15T03:11:27.245Z,100.00
2022-09-15T03:14:02.911Z,100.00
2022-09-15T03:16:31.512Z,100.00
2022-09-15T03:18:59.777Z,100.00
2022-09-15T03:21:29.401Z,100.00
2022-09-15T03:23:57.786Z,100.00
2022-09-15T03:26:25.216Z,100.00
2022-09-15T03:28:51.878Z,100.00
2022-09-15T03:31:19.912Z,100.00
2022-09-15T03:33:47.144Z,100.00
2022-09-15T03:36:13.906Z,100.00
2022-09-15T03:38:40.524Z,100.00
2022-09-15T03:41:11.355Z,100.00
2022-09-15T03:43:38.530Z,100.00
2022-09-15T03:46:06.867Z,100.00
2022-09-15T03:48:35.529Z,100.00
2022-09-15T03:51:05.869Z,100.00
2022-09-15T03:53:34.547Z,100.00
2022-09-15T03:56:13.792Z,100.00
2022-09-15T03:58:40.703Z,100.00
2022-09-15T04:01:07.503Z,100.00
2022-09-15T04:03:37.435Z,100.00
2022-09-15T04:06:07.403Z,100.00
2022-09-15T04:08:34.057Z,100.00
2022-09-15T04:11:05.875Z,100.00
2022-09-15T04:13:32.729Z,100.00
2022-09-15T04:16:10.369Z,100.00
2022-09-15T04:18:37.729Z,100.00
2022-09-15T04:21:07.368Z,100.00
2022-09-15T04:23:34.751Z,100.00
2022-09-15T04:26:07.820Z,100.00
2022-09-15T04:28:37.026Z,100.00
2022-09-15T04:31:12.128Z,100.00
2022-09-15T04:33:39.643Z,100.00
2022-09-15T04:36:12.375Z,100.00
2022-09-15T04:38:39.087Z,100.00
2022-09-15T04:41:06.847Z,100.00
2022-09-15T04:43:33.875Z,100.00
2022-09-15T04:46:00.696Z,100.00
2022-09-15T04:48:28.038Z,100.00
2022-09-15T04:50:54.850Z,100.00
2022-09-15T04:53:21.679Z,100.00
2022-09-15T04:55:48.312Z,100.00
2022-09-15T04:58:14.937Z,100.00
2022-09-15T05:00:45.887Z,100.00
2022-09-15T05:03:14.173Z,100.00
2022-09-15T05:05:41.684Z,100.00
2022-09-15T05:08:08.368Z,100.00
2022-09-15T05:10:35.355Z,100.00
2022-09-15T05:13:02.137Z,100.00
2022-09-15T05:15:28.792Z,100.00
2022-09-15T05:17:55.594Z,100.00
2022-09-15T05:20:22.747Z,100.00
2022-09-15T05:22:49.739Z,100.00
2022-09-15T05:25:16.455Z,100.00
2022-09-15T05:27:43.126Z,100.00
2022-09-15T05:30:35.938Z,100.00
2022-09-15T05:32:57.134Z,94.53
2022-09-15T05:35:23.875Z,84.13
2022-09-15T05:37:50.511Z,75.79
2022-09-15T05:40:17.312Z,73.57
2022-09-15T05:42:43.954Z,66.66
2022-09-15T05:45:11.181Z,62.62
2022-09-15T05:47:37.781Z,58.01
2022-09-15T05:50:04.700Z,54.48
2022-09-15T05:52:31.390Z,54.04
2022-09-15T05:54:59.344Z,54.49
2022-09-15T05:57:26.370Z,52.54
2022-09-15T05:59:52.959Z,52.94
2022-09-15T06:02:19.577Z,49.00
2022-09-15T06:04:46.235Z,47.89
2022-09-15T06:07:13.169Z,46.26
2022-09-15T06:09:40.081Z,44.57
2022-09-15T06:12:06.860Z,42.74
2022-09-15T06:14:33.504Z,42.34
2022-09-15T06:17:00.192Z,41.28
2022-09-15T06:19:26.895Z,40.68
2022-09-15T06:21:53.905Z,40.02
2022-09-15T06:24:20.655Z,39.10
2022-09-15T06:26:47.368Z,37.54
2022-09-15T06:29:14.173Z,37.36
2022-09-15T06:31:40.913Z,36.58
2022-09-15T06:34:08.716Z,36.25
2022-09-15T06:36:37.029Z,35.49
2022-09-15T06:39:03.866Z,34.64
2022-09-15T06:41:47.022Z,33.62
2022-09-15T06:44:17.659Z,33.96
2022-09-15T06:46:46.942Z,34.19
2022-09-15T06:49:14.151Z,33.99
2022-09-15T06:51:40.829Z,32.33
2022-09-15T06:54:07.766Z,34.47
2022-09-15T06:56:38.143Z,33.37
2022-09-15T06:59:05.349Z,32.13
2022-09-15T07:01:32.705Z,31.76
2022-09-15T07:04:01.604Z,30.43
2022-09-15T07:06:30.016Z,30.65
2022-09-15T07:08:58.625Z,32.79
2022-09-15T07:11:26.056Z,33.11
2022-09-15T07:13:53.022Z,29.46
2022-09-15T07:16:20.832Z,30.49
2022-09-15T07:18:49.024Z,30.09
2022-09-15T07:21:18.608Z,28.35
2022-09-15T07:23:46.208Z,29.39
2022-09-15T07:26:15.686Z,30.64
2022-09-15T07:28:44.354Z,28.92
2022-09-15T07:31:13.573Z,28.36
2022-09-15T07:33:40.363Z,29.52
2022-09-15T07:36:08.508Z,29.46
2022-09-15T07:38:38.855Z,30.50
2022-09-15T07:41:07.661Z,30.20
2022-09-15T07:43:34.604Z,28.44
2022-09-15T07:46:02.330Z,29.21
2022-09-15T07:48:30.221Z,28.42
2022-09-15T07:50:57.268Z,27.65
2022-09-15T07:53:24.163Z,29.18
2022-09-15T07:55:54.853Z,29.34
2022-09-15T07:58:22.324Z,28.16
2022-09-15T08:00:49.793Z,30.42
2022-09-15T08:03:16.842Z,28.78
2022-09-15T08:05:45.774Z,26.87
2022-09-15T08:08:12.955Z,25.48
2022-09-15T08:10:41.382Z,25.64
2022-09-15T08:13:08.611Z,28.34
2022-09-15T08:15:37.617Z,28.00
2022-09-15T08:18:05.970Z,28.78
2022-09-15T08:20:33.198Z,29.26
2022-09-15T08:22:59.926Z,31.04
2022-09-15T08:25:26.669Z,31.19
2022-09-15T08:27:55.129Z,30.37
2022-09-15T08:30:22.515Z,29.12
2022-09-15T08:32:50.472Z,30.64
2022-09-15T08:35:18.595Z,32.11
2022-09-15T08:37:46.248Z,29.66
2022-09-15T08:40:30.709Z,29.95
2022-09-15T08:43:05.501Z,30.95
2022-09-15T08:45:45.069Z,29.28
2022-09-15T08:48:15.822Z,31.85
2022-09-15T08:50:47.620Z,30.70
2022-09-15T08:53:24.090Z,29.44
2022-09-15T08:55:54.824Z,29.27
2022-09-15T08:58:39.734Z,33.58
2022-09-15T09:01:23.058Z,33.15
2022-09-15T09:04:33.104Z,33.52
2022-09-15T09:07:15.476Z,32.83
2022-09-15T09:10:07.036Z,30.74
2022-09-15T09:12:59.875Z,27.62
2022-09-15T09:15:51.222Z,29.67
2022-09-15T09:18:36.221Z,28.96
2022-09-15T09:21:02.886Z,30.77
2022-09-15T09:23:43.821Z,30.03
2022-09-15T09:26:13.004Z,29.48
2022-09-15T09:28:53.167Z,28.31
2022-09-15T09:31:23.020Z,27.51
2022-09-15T09:33:55.434Z,26.62
2022-09-15T09:36:22.573Z,27.80
2022-09-15T09:38:50.727Z,27.28
2022-09-15T09:41:23.408Z,27.69
2022-09-15T09:43:52.386Z,27.83
2022-09-15T09:46:20.385Z,30.70
2022-09-15T09:49:17.088Z,29.35
2022-09-15T09:52:00.078Z,30.18
2022-09-15T09:54:31.418Z,30.24
2022-09-15T09:57:23.179Z,31.99
2022-09-15T09:59:50.800Z,30.63
2022-09-15T10:02:21.997Z,30.75
2022-09-15T10:04:53.183Z,29.79
2022-09-15T10:07:24.609Z,29.55
2022-09-15T10:10:02.127Z,29.25
2022-09-15T10:12:32.211Z,29.80
2022-09-15T10:15:02.546Z,31.13
2022-09-15T10:17:44.804Z,33.27
2022-09-15T10:20:38.942Z,32.49
2022-09-15T10:23:27.686Z,33.03
2022-09-15T10:26:00.717Z,34.53
2022-09-15T10:28:28.144Z,31.88
2022-09-15T10:30:59.846Z,32.49
2022-09-15T10:33:29.592Z,32.50
2022-09-15T10:36:04.010Z,32.99
2022-09-15T10:38:42.084Z,33.42
2022-09-15T10:41:08.792Z,33.86
2022-09-15T10:43:35.400Z,34.59
2022-09-15T10:46:09.331Z,33.56
2022-09-15T10:48:49.044Z,35.19
2022-09-15T10:51:36.967Z,35.08
2022-09-15T10:54:24.876Z,35.34
2022-09-15T10:56:58.350Z,36.04
2022-09-15T10:59:32.094Z,36.34
2022-09-15T11:02:01.698Z,38.31
2022-09-15T11:04:43.068Z,37.10
2022-09-15T11:07:33.811Z,36.82
2022-09-15T11:10:03.273Z,36.28
2022-09-15T11:12:56.490Z,36.81
2022-09-15T11:15:31.033Z,36.83
2022-09-15T11:18:12.615Z,37.38
2022-09-15T11:20:54.548Z,37.97
2022-09-15T11:23:29.559Z,38.65
2022-09-15T11:26:22.074Z,37.44
2022-09-15T11:28:57.802Z,37.71
2022-09-15T11:31:34.498Z,37.53
2022-09-15T11:34:11.910Z,38.88
2022-09-15T11:36:48.627Z,39.42
2022-09-15T11:39:30.506Z,39.65
2022-09-15T11:42:18.897Z,38.44
2022-09-15T11:44:48.007Z,39.68
2022-09-15T11:47:36.576Z,39.78
2022-09-15T11:50:20.802Z,39.75
2022-09-15T11:53:02.826Z,39.94
2022-09-15T11:55:55.924Z,38.27
2022-09-15T11:58:53.280Z,39.32
2022-09-15T12:01:24.867Z,39.83
2022-09-15T12:04:03.461Z,38.85
2022-09-15T12:07:14.604Z,39.53
2022-09-15T12:09:41.637Z,38.97
2022-09-15T12:12:16.955Z,40.21
2022-09-15T12:14:49.315Z,40.65
2022-09-15T12:17:38.957Z,39.52
2022-09-15T12:20:17.511Z,39.71
2022-09-15T12:22:53.457Z,40.08
2022-09-15T12:25:26.521Z,40.62
2022-09-15T12:28:24.421Z,40.51
2022-09-15T12:31:13.962Z,41.32
2022-09-15T12:33:45.045Z,41.76
2022-09-15T12:36:45.815Z,42.08
2022-09-15T12:39:38.360Z,40.83
2022-09-15T12:42:12.535Z,42.60
2022-09-15T12:44:54.627Z,41.34
2022-09-15T12:48:10.116Z,41.74
2022-09-15T12:50:41.066Z,41.36
2022-09-15T12:56:08.320Z,41.58
2022-09-15T12:58:51.460Z,41.25
2022-09-15T13:01:27.215Z,41.72
2022-09-15T13:03:55.337Z,42.43
2022-09-15T13:06:23.456Z,41.54
2022-09-15T13:09:02.215Z,41.64
2022-09-15T13:11:37.122Z,42.19
2022-09-15T13:14:03.997Z,42.96
2022-09-15T13:16:46.565Z,40.53
2022-09-15T13:19:25.516Z,41.55
2022-09-15T13:22:10.981Z,40.74
2022-09-15T13:25:13.830Z,41.09
2022-09-15T13:28:01.823Z,39.66
2022-09-15T13:30:52.904Z,41.31
2022-09-15T13:35:02.219Z,41.50
2022-09-15T13:39:31.857Z,42.30
2022-09-15T13:42:42.271Z,41.35
2022-09-15T13:45:27.314Z,42.33
2022-09-15T13:48:01.870Z,41.73
2022-09-15T13:50:37.150Z,41.73
2022-09-15T13:53:30.783Z,42.05
2022-09-15T13:56:06.194Z,42.01
2022-09-15T14:01:23.196Z,44.06
2022-09-15T14:04:05.278Z,44.03
2022-09-15T14:06:45.019Z,44.38
2022-09-15T14:09:27.197Z,45.67
2022-09-15T14:11:58.020Z,44.54
2022-09-15T14:14:27.628Z,44.88
2022-09-15T14:16:55.971Z,45.64
2022-09-15T14:19:32.477Z,47.38
2022-09-15T14:22:00.939Z,49.13
2022-09-15T14:24:30.750Z,48.16
2022-09-15T14:27:00.939Z,49.38
2022-09-15T14:29:28.030Z,49.35
2022-09-15T14:32:00.901Z,49.73
2022-09-15T14:34:31.804Z,51.23
2022-09-15T14:37:07.335Z,51.67
2022-09-15T14:39:37.729Z,52.40
2022-09-15T14:42:22.225Z,52.71
2022-09-15T14:47:39.075Z,53.87
2022-09-15T14:50:22.134Z,53.75
2022-09-15T14:52:51.873Z,53.97
2022-09-15T14:55:33.788Z,54.87
2022-09-15T14:58:11.575Z,55.59
2022-09-15T15:01:00.016Z,55.62
2022-09-15T15:03:51.643Z,56.25
2022-09-15T15:06:30.757Z,55.62
2022-09-15T15:09:09.750Z,56.84
2022-09-15T15:11:39.393Z,58.41
2022-09-15T15:14:08.594Z,57.81
2022-09-15T15:16:35.945Z,58.55
2022-09-15T15:19:02.913Z,57.74
2022-09-15T15:21:35.727Z,59.46
2022-09-15T15:24:17.498Z,59.76
2022-09-15T15:26:46.276Z,59.89
2022-09-15T15:29:41.028Z,60.32
2022-09-15T15:32:13.558Z,60.73
2022-09-15T15:34:40.630Z,61.17
2022-09-15T15:37:23.218Z,61.81
2022-09-15T15:39:50.098Z,62.14
2022-09-15T15:42:17.198Z,63.16
2022-09-15T15:45:09.421Z,64.21
2022-09-15T15:47:37.184Z,63.29
2022-09-15T15:50:16.298Z,62.65
2022-09-15T15:52:44.038Z,64.46
2022-09-15T15:55:39.119Z,63.23
2022-09-15T15:58:05.813Z,63.52
2022-09-15T16:00:40.926Z,64.31
2022-09-15T16:03:08.860Z,64.55
2022-09-15T16:05:35.939Z,65.49
2022-09-15T16:08:30.122Z,70.74
2022-09-15T16:10:57.728Z,70.35
2022-09-15T16:13:25.298Z,69.01
2022-09-15T16:15:57.898Z,71.49
2022-09-15T16:18:25.098Z,69.23
2022-09-15T16:20:52.324Z,74.03
2022-09-15T16:23:22.413Z,74.77
2022-09-15T16:26:04.087Z,75.59
2022-09-15T16:28:30.995Z,77.87
2022-09-15T16:30:58.714Z,78.79
2022-09-15T16:33:26.211Z,77.31
2022-09-15T16:36:07.012Z,75.50
2022-09-15T16:38:36.878Z,73.24
2022-09-15T16:41:06.295Z,76.70
2022-09-15T16:43:32.926Z,75.54
2022-09-15T16:45:59.677Z,77.98
2022-09-15T16:48:27.357Z,79.87
2022-09-15T16:51:20.481Z,78.56
2022-09-15T16:53:41.331Z,81.12
2022-09-15T16:56:11.520Z,80.03
2022-09-15T16:58:38.936Z,82.54
2022-09-15T17:01:06.685Z,89.03
2022-09-15T17:03:34.327Z,90.03
2022-09-15T17:06:02.012Z,89.08
2022-09-15T17:08:32.256Z,91.70
2022-09-15T17:11:02.573Z,91.16
2022-09-15T17:13:31.971Z,100.00
2022-09-15T17:16:00.528Z,100.00
2022-09-15T17:18:28.247Z,100.00
2022-09-15T17:20:55.801Z,100.00
2022-09-15T17:23:35.700Z,100.00
2022-09-15T17:26:05.470Z,100.00
2022-09-15T17:28:34.826Z,100.00
2022-09-15T17:31:11.917Z,100.00
2022-09-15T17:33:39.554Z,100.00
2022-09-15T17:36:06.990Z,100.00
2022-09-15T17:38:34.569Z,100.00
2022-09-15T17:41:01.375Z,100.00
2022-09-15T17:43:30.381Z,100.00
2022-09-15T17:45:57.173Z,100.00
2022-09-15T17:48:24.826Z,100.00
2022-09-15T17:50:52.365Z,100.00
2022-09-15T17:53:21.484Z,100.00
2022-09-15T17:55:49.422Z,100.00
2022-09-15T17:58:16.958Z,100.00
2022-09-15T18:00:44.931Z,100.00
2022-09-15T18:03:28.075Z,100.00
2022-09-15T18:05:56.836Z,100.00
2022-09-15T18:08:23.577Z,100.00
2022-09-15T18:10:50.831Z,100.00
2022-09-15T18:13:20.786Z,100.00
2022-09-15T18:15:49.071Z,100.00
2022-09-15T18:18:24.744Z,100.00
2022-09-15T18:20:53.341Z,100.00
2022-09-15T18:23:22.649Z,100.00
2022-09-15T18:25:50.364Z,100.00
2022-09-15T18:28:18.702Z,100.00
2022-09-15T18:30:48.123Z,100.00
2022-09-15T18:33:16.818Z,100.00
2022-09-15T18:35:43.924Z,100.00
2022-09-15T18:38:11.460Z,100.00
2022-09-15T18:40:38.564Z,100.00
2022-09-15T18:43:05.706Z,100.00
2022-09-15T18:45:32.464Z,100.00
2022-09-15T18:47:59.288Z,100.00
2022-09-15T18:50:26.008Z,100.00
2022-09-15T18:52:53.207Z,100.00
2022-09-15T18:55:21.952Z,100.00
2022-09-15T18:57:49.443Z,100.00
2022-09-15T19:00:23.076Z,100.00
2022-09-15T19:02:55.551Z,100.00
2022-09-15T19:05:22.183Z,100.00
2022-09-15T19:07:49.089Z,100.00
2022-09-15T19:10:17.465Z,100.00
2022-09-15T19:12:44.666Z,100.00
2022-09-15T19:15:13.768Z,100.00
2022-09-15T19:17:41.906Z,100.00
2022-09-15T19:20:11.376Z,100.00
2022-09-15T19:22:38.427Z,100.00
2022-09-15T19:25:06.559Z,100.00
2022-09-15T19:27:33.421Z,100.00
2022-09-15T19:30:00.499Z,100.00
2022-09-15T19:32:27.712Z,100.00
2022-09-15T19:34:54.520Z,100.00
2022-09-15T19:37:22.194Z,100.00
2022-09-15T19:39:49.583Z,100.00
2022-09-15T19:42:16.892Z,100.00
2022-09-15T19:44:43.827Z,100.00
2022-09-15T19:47:10.825Z,100.00
2022-09-15T19:49:37.727Z,100.00
2022-09-15T19:52:06.495Z,100.00
2022-09-15T19:54:34.659Z,100.00
2022-09-15T19:57:02.142Z,100.00
2022-09-15T19:59:31.374Z,100.00
2022-09-15T20:01:59.263Z,100.00
2022-09-15T20:04:26.164Z,100.00
2022-09-15T20:06:52.838Z,100.00
2022-09-15T20:09:19.507Z,100.00
2022-09-15T20:11:46.217Z,100.00
2022-09-15T20:14:13.670Z,100.00
2022-09-15T20:16:40.735Z,100.00
2022-09-15T20:19:07.678Z,100.00
2022-09-15T20:21:52.260Z,100.00
2022-09-15T20:24:19.779Z,100.00
2022-09-15T20:26:46.523Z,100.00
2022-09-15T20:29:13.755Z,100.00
2022-09-15T20:31:40.838Z,100.00
2022-09-15T20:34:07.672Z,100.00
2022-09-15T20:36:36.782Z,100.00
2022-09-15T20:39:05.874Z,100.00
2022-09-15T20:41:32.526Z,100.00
2022-09-15T20:44:00.301Z,100.00
2022-09-15T20:46:31.604Z,100.00
2022-09-15T20:48:58.344Z,100.00
2022-09-15T20:51:27.982Z,100.00
2022-09-15T20:53:56.785Z,100.00
2022-09-15T20:56:28.540Z,100.00
2022-09-15T20:58:58.510Z,100.00
2022-09-15T21:01:32.505Z,100.00
2022-09-15T21:03:59.414Z,100.00
2022-09-15T21:06:27.648Z,100.00
2022-09-15T21:08:56.163Z,100.00
2022-09-15T21:11:24.149Z,100.00
2022-09-15T21:13:51.148Z,100.00
2022-09-15T21:16:22.107Z,100.00
2022-09-15T21:18:50.507Z,100.00
2022-09-15T21:21:20.487Z,100.00
2022-09-15T21:24:03.861Z,100.00
2022-09-15T21:26:59.211Z,100.00
2022-09-15T21:29:27.728Z,100.00
2022-09-15T21:31:55.875Z,100.00
2022-09-15T21:34:22.719Z,100.00
2022-09-15T21:36:51.861Z,100.00
2022-09-15T21:39:18.539Z,100.00
2022-09-15T21:41:45.295Z,100.00
2022-09-15T21:44:11.970Z,100.00
2022-09-15T21:46:38.583Z,100.00
2022-09-15T21:49:05.756Z,100.00
2022-09-15T21:51:32.979Z,100.00
2022-09-15T21:54:00.677Z,100.00
2022-09-15T21:56:28.835Z,100.00
2022-09-15T21:58:55.760Z,100.00
2022-09-15T22:01:25.407Z,100.00
2022-09-15T22:03:56.644Z,100.00
2022-09-15T22:06:33.296Z,100.00
2022-09-15T22:09:01.686Z,100.00
2022-09-15T22:11:28.834Z,100.00
2022-09-15T22:13:55.867Z,100.00
2022-09-15T22:16:24.369Z,100.00
2022-09-15T22:18:52.039Z,100.00
2022-09-15T22:21:27.852Z,100.00
2022-09-15T22:23:56.463Z,100.00
2022-09-15T22:26:28.704Z,100.00
2022-09-15T22:28:56.122Z,100.00
2022-09-15T22:31:24.362Z,100.00
2022-09-15T22:33:51.277Z,100.00
2022-09-15T22:36:30.332Z,100.00
2022-09-15T22:39:05.273Z,100.00
2022-09-15T22:41:38.465Z,100.00
2022-09-15T22:44:06.653Z,100.00
2022-09-15T22:46:33.448Z,100.00
2022-09-15T22:49:00.223Z,100.00
2022-09-15T22:51:26.931Z,100.00
2022-09-15T22:53:54.894Z,100.00
2022-09-15T22:56:21.638Z,100.00
2022-09-15T22:58:49.550Z,100.00
2022-09-15T23:01:22.252Z,100.00
2022-09-15T23:03:54.428Z,100.00
2022-09-15T23:06:21.509Z,100.00
2022-09-15T23:08:52.986Z,100.00
2022-09-15T23:11:21.083Z,100.00
2022-09-15T23:13:48.217Z,100.00
2022-09-15T23:16:17.755Z,100.00
2022-09-15T23:18:44.989Z,100.00
2022-09-15T23:21:12.897Z,100.00
2022-09-15T23:23:41.676Z,100.00
2022-09-15T23:26:10.376Z,100.00
2022-09-15T23:28:39.261Z,100.00
2022-09-15T23:31:07.590Z,100.00
2022-09-15T23:33:34.811Z,100.00
2022-09-15T23:36:03.790Z,100.00
2022-09-15T23:38:31.371Z,100.00
2022-09-15T23:40:58.097Z,100.00
2022-09-15T23:43:24.826Z,100.00
2022-09-15T23:45:51.752Z,100.00
2022-09-15T23:48:18.715Z,100.00
2022-09-15T23:50:45.631Z,100.00
2022-09-15T23:53:12.868Z,100.00
2022-09-15T23:55:39.704Z,100.00
2022-09-15T23:58:06.509Z,100.00
